sensor_id;sensor_type;location;lat;lon;timestamp;P1;durP1;ratioP1;P2;durP2;ratioP2
49572;SDS011;35476;52.466;13.364;2022-12-15T00:04:23;53.13;;;22.65;;
49572;SDS011;35476;52.466;13.364;2022-12-15T00:07:07;53.15;;;23.27;;
49572;SDS011;35476;52.466;13.364;2022-12-15T00:09:51;50.67;;;24.13;;
49572;SDS011;35476;52.466;13.364;2022-12-15T00:12:35;53.53;;;24.20;;
49572;SDS011;35476;52.466;13.364;2022-12-15T00:18:04;46.85;;;20.85;;
49572;SDS011;35476;52.466;13.364;2022-12-15T00:20:48;48.58;;;22.77;;
49572;SDS011;35476;52.466;13.364;2022-12-15T00:26:16;45.90;;;20.17;;
49572;SDS011;35476;52.466;13.364;2022-12-15T00:31:44;49.10;;;21.90;;
49572;SDS011;35476;52.466;13.364;2022-12-15T00:34:28;57.58;;;23.02;;
49572;SDS011;35476;52.466;13.364;2022-12-15T00:37:12;49.65;;;23.02;;
49572;SDS011;35476;52.466;13.364;2022-12-15T00:42:28;45.35;;;21.67;;
49572;SDS011;35476;52.466;13.364;2022-12-15T00:44:54;47.17;;;21.98;;
49572;SDS011;35476;52.466;13.364;2022-12-15T00:47:19;61.83;;;22.98;;
49572;SDS011;35476;52.466;13.364;2022-12-15T00:49:44;55.25;;;26.10;;
49572;SDS011;35476;52.466;13.364;2022-12-15T00:55:12;56.72;;;22.88;;
49572;SDS011;35476;52.466;13.364;2022-12-15T00:57:56;47.20;;;24.27;;
49572;SDS011;35476;52.466;13.364;2022-12-15T01:00:41;45.38;;;21.75;;
49572;SDS011;35476;52.466;13.364;2022-12-15T01:06:10;37.00;;;18.98;;
49572;SDS011;35476;52.466;13.364;2022-12-15T01:08:54;57.60;;;26.73;;
49572;SDS011;35476;52.466;13.364;2022-12-15T01:11:39;45.03;;;22.85;;
49572;SDS011;35476;52.466;13.364;2022-12-15T01:14:23;58.83;;;26.63;;
49572;SDS011;35476;52.466;13.364;2022-12-15T01:17:07;64.38;;;28.52;;
49572;SDS011;35476;52.466;13.364;2022-12-15T01:19:51;74.15;;;31.17;;
49572;SDS011;35476;52.466;13.364;2022-12-15T01:25:00;65.43;;;27.58;;
49572;SDS011;35476;52.466;13.364;2022-12-15T01:27:25;66.10;;;33.00;;
49572;SDS011;35476;52.466;13.364;2022-12-15T01:29:50;58.25;;;28.23;;
49572;SDS011;35476;52.466;13.364;2022-12-15T01:32:15;57.60;;;30.85;;
49572;SDS011;35476;52.466;13.364;2022-12-15T01:34:40;53.28;;;28.65;;
49572;SDS011;35476;52.466;13.364;2022-12-15T01:37:06;52.53;;;26.50;;
49572;SDS011;35476;52.466;13.364;2022-12-15T01:39:31;65.15;;;30.73;;
49572;SDS011;35476;52.466;13.364;2022-12-15T01:42:16;54.67;;;28.67;;
49572;SDS011;35476;52.466;13.364;2022-12-15T01:44:43;55.30;;;27.08;;
49572;SDS011;35476;52.466;13.364;2022-12-15T01:47:09;65.07;;;32.17;;
49572;SDS011;35476;52.466;13.364;2022-12-15T01:49:36;58.08;;;30.17;;
49572;SDS011;35476;52.466;13.364;2022-12-15T01:52:01;47.30;;;25.83;;
49572;SDS011;35476;52.466;13.364;2022-12-15T01:55:11;57.92;;;29.42;;
49572;SDS011;35476;52.466;13.364;2022-12-15T01:57:19;58.35;;;26.35;;
49572;SDS011;35476;52.466;13.364;2022-12-15T01:59:47;54.85;;;27.00;;
49572;SDS011;35476;52.466;13.364;2022-12-15T02:02:14;50.78;;;26.13;;
49572;SDS011;35476;52.466;13.364;2022-12-15T02:04:40;57.63;;;28.58;;
49572;SDS011;35476;52.466;13.364;2022-12-15T02:07:06;54.00;;;25.80;;
49572;SDS011;35476;52.466;13.364;2022-12-15T02:09:31;51.33;;;26.80;;
49572;SDS011;35476;52.466;13.364;2022-12-15T02:32:41;58.03;;;25.30;;
49572;SDS011;35476;52.466;13.364;2022-12-15T02:35:13;59.05;;;23.23;;
49572;SDS011;35476;52.466;13.364;2022-12-15T02:37:40;50.47;;;23.40;;
49572;SDS011;35476;52.466;13.364;2022-12-15T02:40:07;52.67;;;23.40;;
49572;SDS011;35476;52.466;13.364;2022-12-15T02:42:33;60.28;;;27.02;;
49572;SDS011;35476;52.466;13.364;2022-12-15T02:50:18;56.70;;;27.80;;
49572;SDS011;35476;52.466;13.364;2022-12-15T02:55:34;58.53;;;25.75;;
49572;SDS011;35476;52.466;13.364;2022-12-15T03:00:37;50.15;;;23.25;;
49572;SDS011;35476;52.466;13.364;2022-12-15T03:03:03;61.75;;;26.00;;
49572;SDS011;35476;52.466;13.364;2022-12-15T03:05:28;52.78;;;23.55;;
49572;SDS011;35476;52.466;13.364;2022-12-15T03:07:55;60.28;;;26.58;;
49572;SDS011;35476;52.466;13.364;2022-12-15T03:10:21;49.15;;;22.40;;
49572;SDS011;35476;52.466;13.364;2022-12-15T03:12:47;54.08;;;24.52;;
49572;SDS011;35476;52.466;13.364;2022-12-15T03:15:14;56.90;;;26.23;;
49572;SDS011;35476;52.466;13.364;2022-12-15T03:17:39;45.05;;;24.55;;
49572;SDS011;35476;52.466;13.364;2022-12-15T03:20:04;47.20;;;23.88;;
49572;SDS011;35476;52.466;13.364;2022-12-15T03:22:30;46.90;;;23.55;;
49572;SDS011;35476;52.466;13.364;2022-12-15T03:24:55;51.05;;;25.80;;
49572;SDS011;35476;52.466;13.364;2022-12-15T03:27:21;46.97;;;25.05;;
49572;SDS011;35476;52.466;13.364;2022-12-15T03:29:46;51.85;;;24.38;;
49572;SDS011;35476;52.466;13.364;2022-12-15T03:32:11;41.55;;;23.17;;
49572;SDS011;35476;52.466;13.364;2022-12-15T03:34:36;48.75;;;24.23;;
49572;SDS011;35476;52.466;13.364;2022-12-15T03:37:02;51.38;;;24.38;;
49572;SDS011;35476;52.466;13.364;2022-12-15T03:39:27;56.25;;;23.55;;
49572;SDS011;35476;52.466;13.364;2022-12-15T03:41:52;50.58;;;25.25;;
49572;SDS011;35476;52.466;13.364;2022-12-15T03:44:17;50.92;;;24.63;;
49572;SDS011;35476;52.466;13.364;2022-12-15T03:46:42;56.40;;;26.10;;
49572;SDS011;35476;52.466;13.364;2022-12-15T03:49:08;50.35;;;23.52;;
49572;SDS011;35476;52.466;13.364;2022-12-15T03:51:33;53.05;;;26.35;;
49572;SDS011;35476;52.466;13.364;2022-12-15T03:53:58;53.63;;;26.60;;
49572;SDS011;35476;52.466;13.364;2022-12-15T03:56:23;56.35;;;27.40;;
49572;SDS011;35476;52.466;13.364;2022-12-15T03:58:48;49.90;;;27.20;;
49572;SDS011;35476;52.466;13.364;2022-12-15T04:03:45;57.97;;;26.08;;
49572;SDS011;35476;52.466;13.364;2022-12-15T04:06:10;49.47;;;25.65;;
49572;SDS011;35476;52.466;13.364;2022-12-15T04:08:35;57.25;;;25.15;;
49572;SDS011;35476;52.466;13.364;2022-12-15T04:11:01;57.35;;;27.85;;
49572;SDS011;35476;52.466;13.364;2022-12-15T04:13:26;50.15;;;28.70;;
49572;SDS011;35476;52.466;13.364;2022-12-15T04:15:51;50.13;;;26.80;;
49572;SDS011;35476;52.466;13.364;2022-12-15T04:18:16;58.22;;;26.42;;
49572;SDS011;35476;52.466;13.364;2022-12-15T04:20:42;62.47;;;28.85;;
49572;SDS011;35476;52.466;13.364;2022-12-15T04:23:07;51.15;;;25.30;;
49572;SDS011;35476;52.466;13.364;2022-12-15T04:25:32;49.17;;;25.10;;
49572;SDS011;35476;52.466;13.364;2022-12-15T04:31:10;38.53;;;19.60;;
49572;SDS011;35476;52.466;13.364;2022-12-15T04:33:56;45.40;;;25.25;;
49572;SDS011;35476;52.466;13.364;2022-12-15T04:36:41;40.97;;;24.23;;
49572;SDS011;35476;52.466;13.364;2022-12-15T04:39:26;45.50;;;23.05;;
49572;SDS011;35476;52.466;13.364;2022-12-15T04:44:56;45.60;;;21.80;;
49572;SDS011;35476;52.466;13.364;2022-12-15T04:47:41;49.95;;;22.02;;
49572;SDS011;35476;52.466;13.364;2022-12-15T04:50:25;44.15;;;22.40;;
49572;SDS011;35476;52.466;13.364;2022-12-15T04:53:13;46.95;;;22.55;;
49572;SDS011;35476;52.466;13.364;2022-12-15T04:55:58;47.42;;;21.48;;
49572;SDS011;35476;52.466;13.364;2022-12-15T05:01:25;36.58;;;16.27;;
49572;SDS011;35476;52.466;13.364;2022-12-15T05:04:09;56.47;;;23.52;;
49572;SDS011;35476;52.466;13.364;2022-12-15T05:09:37;41.33;;;19.77;;
49572;SDS011;35476;52.466;13.364;2022-12-15T05:12:21;47.40;;;21.45;;
49572;SDS011;35476;52.466;13.364;2022-12-15T05:17:49;57.28;;;22.25;;
49572;SDS011;35476;52.466;13.364;2022-12-15T05:23:17;48.00;;;24.70;;
49572;SDS011;35476;52.466;13.364;2022-12-15T05:28:45;33.47;;;14.40;;
49572;SDS011;35476;52.466;13.364;2022-12-15T05:34:14;35.47;;;16.75;;
49572;SDS011;35476;52.466;13.364;2022-12-15T05:36:40;55.67;;;26.63;;
49572;SDS011;35476;52.466;13.364;2022-12-15T05:39:05;53.22;;;23.90;;
49572;SDS011;35476;52.466;13.364;2022-12-15T05:41:30;50.03;;;23.60;;
49572;SDS011;35476;52.466;13.364;2022-12-15T05:43:55;48.75;;;24.48;;
49572;SDS011;35476;52.466;13.364;2022-12-15T05:46:20;61.60;;;27.15;;
49572;SDS011;35476;52.466;13.364;2022-12-15T05:48:46;53.95;;;24.35;;
49572;SDS011;35476;52.466;13.364;2022-12-15T05:51:11;52.78;;;25.33;;
49572;SDS011;35476;52.466;13.364;2022-12-15T05:53:37;52.30;;;24.98;;
49572;SDS011;35476;52.466;13.364;2022-12-15T05:56:03;54.28;;;28.67;;
49572;SDS011;35476;52.466;13.364;2022-12-15T05:58:28;46.67;;;24.55;;
49572;SDS011;35476;52.466;13.364;2022-12-15T06:00:54;49.40;;;23.63;;
49572;SDS011;35476;52.466;13.364;2022-12-15T06:03:19;52.78;;;24.58;;
49572;SDS011;35476;52.466;13.364;2022-12-15T06:05:44;60.85;;;23.90;;
49572;SDS011;35476;52.466;13.364;2022-12-15T06:08:09;50.38;;;24.42;;
49572;SDS011;35476;52.466;13.364;2022-12-15T06:10:34;55.20;;;25.10;;
49572;SDS011;35476;52.466;13.364;2022-12-15T06:13:00;52.90;;;23.58;;
49572;SDS011;35476;52.466;13.364;2022-12-15T06:15:25;58.05;;;24.88;;
49572;SDS011;35476;52.466;13.364;2022-12-15T06:17:50;47.25;;;21.52;;
49572;SDS011;35476;52.466;13.364;2022-12-15T06:20:17;50.88;;;22.98;;
49572;SDS011;35476;52.466;13.364;2022-12-15T06:22:42;54.35;;;25.65;;
49572;SDS011;35476;52.466;13.364;2022-12-15T06:25:07;50.97;;;23.48;;
49572;SDS011;35476;52.466;13.364;2022-12-15T06:27:34;53.17;;;23.90;;
49572;SDS011;35476;52.466;13.364;2022-12-15T06:29:59;44.05;;;19.85;;
49572;SDS011;35476;52.466;13.364;2022-12-15T06:32:25;38.85;;;21.08;;
49572;SDS011;35476;52.466;13.364;2022-12-15T06:34:50;39.75;;;20.42;;
49572;SDS011;35476;52.466;13.364;2022-12-15T06:37:15;52.28;;;21.73;;
49572;SDS011;35476;52.466;13.364;2022-12-15T06:39:40;38.15;;;21.95;;
49572;SDS011;35476;52.466;13.364;2022-12-15T06:42:06;56.38;;;26.88;;
49572;SDS011;35476;52.466;13.364;2022-12-15T06:44:31;56.05;;;27.27;;
49572;SDS011;35476;52.466;13.364;2022-12-15T06:46:56;46.38;;;20.70;;
49572;SDS011;35476;52.466;13.364;2022-12-15T06:49:22;54.10;;;22.58;;
49572;SDS011;35476;52.466;13.364;2022-12-15T06:51:48;48.05;;;25.48;;
49572;SDS011;35476;52.466;13.364;2022-12-15T06:54:13;57.47;;;21.73;;
49572;SDS011;35476;52.466;13.364;2022-12-15T06:56:38;47.35;;;22.55;;
49572;SDS011;35476;52.466;13.364;2022-12-15T06:59:04;36.90;;;19.05;;
49572;SDS011;35476;52.466;13.364;2022-12-15T07:01:30;42.00;;;20.95;;
49572;SDS011;35476;52.466;13.364;2022-12-15T07:03:55;61.53;;;24.25;;
49572;SDS011;35476;52.466;13.364;2022-12-15T07:06:20;43.75;;;21.58;;
49572;SDS011;35476;52.466;13.364;2022-12-15T07:08:50;46.13;;;21.38;;
49572;SDS011;35476;52.466;13.364;2022-12-15T07:11:20;48.30;;;23.13;;
49572;SDS011;35476;52.466;13.364;2022-12-15T07:13:49;53.40;;;23.52;;
49572;SDS011;35476;52.466;13.364;2022-12-15T07:16:15;53.55;;;23.10;;
49572;SDS011;35476;52.466;13.364;2022-12-15T07:18:40;46.72;;;22.17;;
49572;SDS011;35476;52.466;13.364;2022-12-15T07:21:06;35.83;;;19.65;;
49572;SDS011;35476;52.466;13.364;2022-12-15T07:23:32;44.92;;;21.48;;
49572;SDS011;35476;52.466;13.364;2022-12-15T07:25:57;40.33;;;21.90;;
49572;SDS011;35476;52.466;13.364;2022-12-15T07:28:22;47.22;;;20.20;;
49572;SDS011;35476;52.466;13.364;2022-12-15T07:30:47;45.70;;;21.33;;
49572;SDS011;35476;52.466;13.364;2022-12-15T07:33:13;42.55;;;19.02;;
49572;SDS011;35476;52.466;13.364;2022-12-15T07:35:39;46.25;;;21.23;;
49572;SDS011;35476;52.466;13.364;2022-12-15T07:38:05;52.70;;;20.30;;
49572;SDS011;35476;52.466;13.364;2022-12-15T07:40:31;42.90;;;20.50;;
49572;SDS011;35476;52.466;13.364;2022-12-15T07:42:56;49.67;;;23.10;;
49572;SDS011;35476;52.466;13.364;2022-12-15T07:45:21;49.75;;;20.92;;
49572;SDS011;35476;52.466;13.364;2022-12-15T07:47:47;46.17;;;22.45;;
49572;SDS011;35476;52.466;13.364;2022-12-15T07:50:14;40.95;;;21.63;;
49572;SDS011;35476;52.466;13.364;2022-12-15T07:52:39;42.45;;;21.20;;
49572;SDS011;35476;52.466;13.364;2022-12-15T07:55:04;46.22;;;23.55;;
49572;SDS011;35476;52.466;13.364;2022-12-15T07:57:29;49.65;;;24.45;;
49572;SDS011;35476;52.466;13.364;2022-12-15T07:59:56;43.28;;;21.40;;
49572;SDS011;35476;52.466;13.364;2022-12-15T08:02:21;45.15;;;21.67;;
49572;SDS011;35476;52.466;13.364;2022-12-15T08:04:47;46.35;;;20.08;;
49572;SDS011;35476;52.466;13.364;2022-12-15T08:07:12;52.63;;;22.85;;
49572;SDS011;35476;52.466;13.364;2022-12-15T08:09:37;34.55;;;19.80;;
49572;SDS011;35476;52.466;13.364;2022-12-15T08:12:02;38.65;;;21.52;;
49572;SDS011;35476;52.466;13.364;2022-12-15T08:14:28;45.35;;;21.45;;
49572;SDS011;35476;52.466;13.364;2022-12-15T08:16:53;43.75;;;21.10;;
49572;SDS011;35476;52.466;13.364;2022-12-15T08:19:18;41.53;;;21.90;;
49572;SDS011;35476;52.466;13.364;2022-12-15T08:21:44;43.80;;;23.70;;
49572;SDS011;35476;52.466;13.364;2022-12-15T08:24:10;46.95;;;21.65;;
49572;SDS011;35476;52.466;13.364;2022-12-15T08:26:36;40.22;;;21.60;;
49572;SDS011;35476;52.466;13.364;2022-12-15T08:29:02;42.35;;;20.23;;
49572;SDS011;35476;52.466;13.364;2022-12-15T08:31:28;50.58;;;26.15;;
49572;SDS011;35476;52.466;13.364;2022-12-15T08:33:54;51.50;;;23.60;;
49572;SDS011;35476;52.466;13.364;2022-12-15T08:36:19;44.08;;;22.25;;
49572;SDS011;35476;52.466;13.364;2022-12-15T08:38:45;44.45;;;23.30;;
49572;SDS011;35476;52.466;13.364;2022-12-15T08:41:12;43.33;;;21.27;;
49572;SDS011;35476;52.466;13.364;2022-12-15T08:43:37;43.97;;;21.95;;
49572;SDS011;35476;52.466;13.364;2022-12-15T08:46:03;42.08;;;21.20;;
49572;SDS011;35476;52.466;13.364;2022-12-15T08:48:28;51.13;;;25.25;;
49572;SDS011;35476;52.466;13.364;2022-12-15T08:50:54;49.58;;;24.55;;
49572;SDS011;35476;52.466;13.364;2022-12-15T08:53:19;53.58;;;23.73;;
49572;SDS011;35476;52.466;13.364;2022-12-15T08:55:44;47.15;;;22.95;;
49572;SDS011;35476;52.466;13.364;2022-12-15T08:58:10;50.92;;;24.95;;
49572;SDS011;35476;52.466;13.364;2022-12-15T09:00:35;44.53;;;24.17;;
49572;SDS011;35476;52.466;13.364;2022-12-15T09:03:00;43.83;;;23.13;;
49572;SDS011;35476;52.466;13.364;2022-12-15T09:05:25;55.45;;;25.85;;
49572;SDS011;35476;52.466;13.364;2022-12-15T09:07:54;50.72;;;27.00;;
49572;SDS011;35476;52.466;13.364;2022-12-15T09:10:20;51.10;;;25.55;;
49572;SDS011;35476;52.466;13.364;2022-12-15T09:12:45;46.42;;;23.00;;
49572;SDS011;35476;52.466;13.364;2022-12-15T09:15:10;52.80;;;25.55;;
49572;SDS011;35476;52.466;13.364;2022-12-15T09:17:36;45.50;;;21.63;;
49572;SDS011;35476;52.466;13.364;2022-12-15T09:20:01;41.00;;;23.30;;
49572;SDS011;35476;52.466;13.364;2022-12-15T09:22:27;42.50;;;22.67;;
49572;SDS011;35476;52.466;13.364;2022-12-15T09:24:52;45.40;;;23.67;;
49572;SDS011;35476;52.466;13.364;2022-12-15T09:27:18;45.78;;;23.88;;
49572;SDS011;35476;52.466;13.364;2022-12-15T09:29:43;42.55;;;22.13;;
49572;SDS011;35476;52.466;13.364;2022-12-15T09:32:08;42.92;;;22.48;;
49572;SDS011;35476;52.466;13.364;2022-12-15T09:34:33;37.93;;;22.20;;
49572;SDS011;35476;52.466;13.364;2022-12-15T09:36:58;49.22;;;20.90;;
49572;SDS011;35476;52.466;13.364;2022-12-15T09:39:24;42.72;;;24.33;;
49572;SDS011;35476;52.466;13.364;2022-12-15T09:41:53;34.97;;;21.55;;
49572;SDS011;35476;52.466;13.364;2022-12-15T09:44:20;33.33;;;20.45;;
49572;SDS011;35476;52.466;13.364;2022-12-15T09:46:53;47.90;;;21.88;;
49572;SDS011;35476;52.466;13.364;2022-12-15T09:51:51;39.10;;;22.27;;
49572;SDS011;35476;52.466;13.364;2022-12-15T09:54:17;39.40;;;21.42;;
49572;SDS011;35476;52.466;13.364;2022-12-15T09:56:45;41.20;;;22.75;;
49572;SDS011;35476;52.466;13.364;2022-12-15T10:01:44;39.75;;;21.65;;
49572;SDS011;35476;52.466;13.364;2022-12-15T10:04:14;35.90;;;20.88;;
49572;SDS011;35476;52.466;13.364;2022-12-15T10:06:56;30.77;;;18.40;;
49572;SDS011;35476;52.466;13.364;2022-12-15T10:09:26;38.20;;;22.85;;
49572;SDS011;35476;52.466;13.364;2022-12-15T10:14:28;34.58;;;22.23;;
49572;SDS011;35476;52.466;13.364;2022-12-15T10:16:59;35.95;;;22.60;;
49572;SDS011;35476;52.466;13.364;2022-12-15T10:21:55;39.30;;;22.30;;
49572;SDS011;35476;52.466;13.364;2022-12-15T10:24:20;36.80;;;22.00;;
49572;SDS011;35476;52.466;13.364;2022-12-15T10:27:01;35.90;;;21.80;;
49572;SDS011;35476;52.466;13.364;2022-12-15T10:29:52;43.05;;;25.90;;
49572;SDS011;35476;52.466;13.364;2022-12-15T10:32:25;40.53;;;21.95;;
49572;SDS011;35476;52.466;13.364;2022-12-15T10:34:52;36.20;;;23.90;;
49572;SDS011;35476;52.466;13.364;2022-12-15T10:37:18;41.53;;;23.42;;
49572;SDS011;35476;52.466;13.364;2022-12-15T10:39:45;35.97;;;21.73;;
49572;SDS011;35476;52.466;13.364;2022-12-15T10:42:18;43.95;;;23.33;;
49572;SDS011;35476;52.466;13.364;2022-12-15T10:47:13;36.05;;;21.23;;
49572;SDS011;35476;52.466;13.364;2022-12-15T10:49:40;37.15;;;22.98;;
49572;SDS011;35476;52.466;13.364;2022-12-15T10:52:11;35.20;;;23.58;;
49572;SDS011;35476;52.466;13.364;2022-12-15T10:54:43;38.75;;;21.77;;
49572;SDS011;35476;52.466;13.364;2022-12-15T10:57:20;39.13;;;21.52;;
49572;SDS011;35476;52.466;13.364;2022-12-15T10:59:45;44.90;;;23.95;;
49572;SDS011;35476;52.466;13.364;2022-12-15T11:04:54;34.53;;;22.05;;
49572;SDS011;35476;52.466;13.364;2022-12-15T11:07:20;39.33;;;23.27;;
49572;SDS011;35476;52.466;13.364;2022-12-15T11:09:45;42.95;;;23.75;;
49572;SDS011;35476;52.466;13.364;2022-12-15T11:12:18;37.35;;;21.55;;
49572;SDS011;35476;52.466;13.364;2022-12-15T11:17:43;42.17;;;22.85;;
49572;SDS011;35476;52.466;13.364;2022-12-15T11:20:11;37.05;;;22.80;;
49572;SDS011;35476;52.466;13.364;2022-12-15T11:27:36;38.20;;;23.10;;
49572;SDS011;35476;52.466;13.364;2022-12-15T11:30:22;43.25;;;23.17;;
49572;SDS011;35476;52.466;13.364;2022-12-15T11:32:49;37.38;;;23.67;;
49572;SDS011;35476;52.466;13.364;2022-12-15T11:35:21;36.33;;;23.25;;
49572;SDS011;35476;52.466;13.364;2022-12-15T11:37:55;41.72;;;23.05;;
49572;SDS011;35476;52.466;13.364;2022-12-15T11:40:37;39.55;;;23.75;;
49572;SDS011;35476;52.466;13.364;2022-12-15T11:43:22;34.42;;;22.05;;
49572;SDS011;35476;52.466;13.364;2022-12-15T11:48:26;41.28;;;24.40;;
49572;SDS011;35476;52.466;13.364;2022-12-15T11:51:29;42.22;;;22.70;;
49572;SDS011;35476;52.466;13.364;2022-12-15T11:54:05;36.42;;;22.90;;
49572;SDS011;35476;52.466;13.364;2022-12-15T11:56:36;36.70;;;22.63;;
49572;SDS011;35476;52.466;13.364;2022-12-15T12:04:15;32.95;;;20.95;;
49572;SDS011;35476;52.466;13.364;2022-12-15T12:11:53;31.20;;;21.20;;
49572;SDS011;35476;52.466;13.364;2022-12-15T12:14:43;33.47;;;20.70;;
49572;SDS011;35476;52.466;13.364;2022-12-15T12:17:06;33.60;;;21.88;;
49572;SDS011;35476;52.466;13.364;2022-12-15T12:19:43;33.47;;;21.85;;
49572;SDS011;35476;52.466;13.364;2022-12-15T12:22:20;33.15;;;21.55;;
49572;SDS011;35476;52.466;13.364;2022-12-15T12:24:49;31.50;;;20.45;;
49572;SDS011;35476;52.466;13.364;2022-12-15T12:27:19;31.38;;;22.38;;
49572;SDS011;35476;52.466;13.364;2022-12-15T12:29:48;30.92;;;21.02;;
49572;SDS011;35476;52.466;13.364;2022-12-15T12:32:32;31.58;;;20.80;;
49572;SDS011;35476;52.466;13.364;2022-12-15T12:35:01;36.90;;;21.73;;
49572;SDS011;35476;52.466;13.364;2022-12-15T12:37:43;29.48;;;21.17;;
49572;SDS011;35476;52.466;13.364;2022-12-15T12:42:48;33.25;;;21.33;;
49572;SDS011;35476;52.466;13.364;2022-12-15T12:45:15;36.35;;;21.63;;
49572;SDS011;35476;52.466;13.364;2022-12-15T12:47:43;33.72;;;22.02;;
49572;SDS011;35476;52.466;13.364;2022-12-15T12:50:20;32.97;;;22.10;;
49572;SDS011;35476;52.466;13.364;2022-12-15T12:52:47;33.38;;;21.52;;
49572;SDS011;35476;52.466;13.364;2022-12-15T12:55:27;32.45;;;22.40;;
49572;SDS011;35476;52.466;13.364;2022-12-15T12:57:53;34.83;;;22.73;;
49572;SDS011;35476;52.466;13.364;2022-12-15T13:00:20;30.55;;;20.83;;
49572;SDS011;35476;52.466;13.364;2022-12-15T13:02:49;31.45;;;20.35;;
49572;SDS011;35476;52.466;13.364;2022-12-15T13:05:21;31.05;;;20.50;;
49572;SDS011;35476;52.466;13.364;2022-12-15T13:10:48;36.10;;;22.38;;
49572;SDS011;35476;52.466;13.364;2022-12-15T13:16:01;37.92;;;20.17;;
49572;SDS011;35476;52.466;13.364;2022-12-15T13:18:28;35.65;;;23.35;;
49572;SDS011;35476;52.466;13.364;2022-12-15T13:21:23;36.15;;;21.65;;
49572;SDS011;35476;52.466;13.364;2022-12-15T13:23:59;39.10;;;24.45;;
49572;SDS011;35476;52.466;13.364;2022-12-15T13:26:29;46.03;;;25.35;;
49572;SDS011;35476;52.466;13.364;2022-12-15T13:28:54;40.40;;;22.77;;
49572;SDS011;35476;52.466;13.364;2022-12-15T13:38:57;47.38;;;25.40;;
49572;SDS011;35476;52.466;13.364;2022-12-15T13:41:23;45.95;;;24.83;;
49572;SDS011;35476;52.466;13.364;2022-12-15T13:43:48;43.45;;;24.85;;
49572;SDS011;35476;52.466;13.364;2022-12-15T13:46:15;39.20;;;23.90;;
49572;SDS011;35476;52.466;13.364;2022-12-15T13:49:05;44.05;;;24.55;;
49572;SDS011;35476;52.466;13.364;2022-12-15T14:01:51;45.38;;;24.42;;
49572;SDS011;35476;52.466;13.364;2022-12-15T14:04:16;52.50;;;26.15;;
49572;SDS011;35476;52.466;13.364;2022-12-15T14:06:49;47.13;;;26.00;;
49572;SDS011;35476;52.466;13.364;2022-12-15T14:11:41;53.63;;;26.50;;
49572;SDS011;35476;52.466;13.364;2022-12-15T14:14:18;50.17;;;25.48;;
49572;SDS011;35476;52.466;13.364;2022-12-15T14:16:43;40.95;;;25.25;;
49572;SDS011;35476;52.466;13.364;2022-12-15T14:19:16;43.65;;;24.33;;
49572;SDS011;35476;52.466;13.364;2022-12-15T14:24:46;53.50;;;26.77;;
49572;SDS011;35476;52.466;13.364;2022-12-15T14:27:04;50.17;;;26.58;;
49572;SDS011;35476;52.466;13.364;2022-12-15T14:29:29;43.92;;;24.73;;
49572;SDS011;35476;52.466;13.364;2022-12-15T14:31:55;44.77;;;25.70;;
49572;SDS011;35476;52.466;13.364;2022-12-15T14:36:53;43.53;;;26.17;;
49572;SDS011;35476;52.466;13.364;2022-12-15T14:39:21;42.40;;;26.15;;
49572;SDS011;35476;52.466;13.364;2022-12-15T14:41:47;47.08;;;27.33;;
49572;SDS011;35476;52.466;13.364;2022-12-15T14:46:43;49.57;;;25.90;;
49572;SDS011;35476;52.466;13.364;2022-12-15T14:49:12;42.13;;;26.98;;
49572;SDS011;35476;52.466;13.364;2022-12-15T14:51:40;48.47;;;28.13;;
49572;SDS011;35476;52.466;13.364;2022-12-15T14:54:23;43.08;;;24.08;;
49572;SDS011;35476;52.466;13.364;2022-12-15T14:56:55;42.22;;;23.88;;
49572;SDS011;35476;52.466;13.364;2022-12-15T14:59:20;47.30;;;24.73;;
49572;SDS011;35476;52.466;13.364;2022-12-15T15:01:52;47.65;;;28.15;;
49572;SDS011;35476;52.466;13.364;2022-12-15T15:04:23;54.85;;;28.17;;
49572;SDS011;35476;52.466;13.364;2022-12-15T15:06:52;46.05;;;27.63;;
49572;SDS011;35476;52.466;13.364;2022-12-15T15:12:23;41.78;;;26.02;;
49572;SDS011;35476;52.466;13.364;2022-12-15T15:17:14;49.57;;;25.23;;
49572;SDS011;35476;52.466;13.364;2022-12-15T15:22:37;44.08;;;24.75;;
49572;SDS011;35476;52.466;13.364;2022-12-15T15:25:01;43.40;;;25.73;;
49572;SDS011;35476;52.466;13.364;2022-12-15T15:27:34;50.78;;;26.13;;
49572;SDS011;35476;52.466;13.364;2022-12-15T15:30:14;48.75;;;26.77;;
49572;SDS011;35476;52.466;13.364;2022-12-15T15:35:17;48.95;;;27.45;;
49572;SDS011;35476;52.466;13.364;2022-12-15T15:37:44;54.08;;;26.42;;
49572;SDS011;35476;52.466;13.364;2022-12-15T15:40:09;51.47;;;27.27;;
49572;SDS011;35476;52.466;13.364;2022-12-15T15:42:36;48.20;;;23.52;;
49572;SDS011;35476;52.466;13.364;2022-12-15T15:45:01;47.05;;;25.92;;
49572;SDS011;35476;52.466;13.364;2022-12-15T15:47:26;42.30;;;24.83;;
49572;SDS011;35476;52.466;13.364;2022-12-15T15:49:52;40.97;;;23.48;;
49572;SDS011;35476;52.466;13.364;2022-12-15T15:52:18;41.30;;;23.45;;
49572;SDS011;35476;52.466;13.364;2022-12-15T15:54:43;46.90;;;23.83;;
49572;SDS011;35476;52.466;13.364;2022-12-15T15:57:16;43.25;;;23.02;;
49572;SDS011;35476;52.466;13.364;2022-12-15T15:59:42;40.30;;;23.40;;
49572;SDS011;35476;52.466;13.364;2022-12-15T16:02:08;45.78;;;24.40;;
49572;SDS011;35476;52.466;13.364;2022-12-15T16:04:34;42.10;;;23.50;;
49572;SDS011;35476;52.466;13.364;2022-12-15T16:07:01;48.17;;;24.23;;
49572;SDS011;35476;52.466;13.364;2022-12-15T16:09:26;40.90;;;22.95;;
49572;SDS011;35476;52.466;13.364;2022-12-15T16:11:51;48.15;;;23.98;;
49572;SDS011;35476;52.466;13.364;2022-12-15T16:14:17;47.75;;;22.23;;
49572;SDS011;35476;52.466;13.364;2022-12-15T16:16:42;43.47;;;22.10;;
49572;SDS011;35476;52.466;13.364;2022-12-15T16:19:08;44.15;;;22.90;;
49572;SDS011;35476;52.466;13.364;2022-12-15T16:21:33;53.08;;;24.20;;
49572;SDS011;35476;52.466;13.364;2022-12-15T16:23:59;63.22;;;29.45;;
49572;SDS011;35476;52.466;13.364;2022-12-15T16:26:28;54.58;;;31.75;;
49572;SDS011;35476;52.466;13.364;2022-12-15T16:28:53;61.78;;;33.50;;
49572;SDS011;35476;52.466;13.364;2022-12-15T16:31:29;51.92;;;29.48;;
49572;SDS011;35476;52.466;13.364;2022-12-15T16:33:54;52.47;;;29.95;;
49572;SDS011;35476;52.466;13.364;2022-12-15T16:36:19;54.20;;;28.98;;
49572;SDS011;35476;52.466;13.364;2022-12-15T16:38:45;49.85;;;30.05;;
49572;SDS011;35476;52.466;13.364;2022-12-15T16:41:11;53.25;;;28.08;;
49572;SDS011;35476;52.466;13.364;2022-12-15T16:43:39;51.72;;;28.27;;
49572;SDS011;35476;52.466;13.364;2022-12-15T16:46:04;42.65;;;24.98;;
49572;SDS011;35476;52.466;13.364;2022-12-15T16:48:29;50.22;;;27.80;;
49572;SDS011;35476;52.466;13.364;2022-12-15T16:50:55;50.35;;;26.23;;
49572;SDS011;35476;52.466;13.364;2022-12-15T16:53:24;51.25;;;27.08;;
49572;SDS011;35476;52.466;13.364;2022-12-15T16:55:54;49.58;;;26.20;;
49572;SDS011;35476;52.466;13.364;2022-12-15T16:58:20;44.63;;;23.58;;
49572;SDS011;35476;52.466;13.364;2022-12-15T17:00:45;44.60;;;24.75;;
49572;SDS011;35476;52.466;13.364;2022-12-15T17:03:11;40.58;;;24.48;;